Time;durP1;ratioP1;P1;durP2;ratioP2;P2;SDS_P1;SDS_P2;PMS_P1;PMS_P2;Temp;Humidity;BMP_temperature;BMP_pressure;BME280_temperature;BME280_humidity;BME280_pressure;Samples;Min_cycle;Max_cycle;Signal;HPM_P1;HPM_P2
2022/03/23 00:01:20;;;;;;;19.03;10.63;;;;;;;;;;5078653;28;20455;-72
2022/03/23 00:03:55;;;;;;;16.83;12.17;;;;;;;;;;5079368;28;20711;-72
2022/03/23 00:06:24;;;;;;;20.03;11.50;;;;;;;;;;5079622;28;20448;-73
2022/03/23 00:08:57;;;;;;;19.27;11.33;;;;;;;;;;5079297;28;20512;-72
2022/03/23 00:11:25;;;;;;;23.20;14.40;;;;;;;;;;5079146;28;20755;-73
2022/03/23 00:13:53;;;;;;;17.77;12.70;;;;;;;;;;5079260;28;20486;-73
2022/03/23 00:16:21;;;;;;;19.00;12.10;;;;;;;;;;5079081;28;20507;-73
2022/03/23 00:18:49;;;;;;;22.30;14.00;;;;;;;;;;5078974;28;20495;-73
2022/03/23 00:21:17;;;;;;;21.00;13.03;;;;;;;;;;5078357;28;20456;-73
2022/03/23 00:23:44;;;;;;;19.80;13.23;;;;;;;;;;5078615;28;20551;-72
2022/03/23 00:26:15;;;;;;;20.70;13.50;;;;;;;;;;5078877;28;20456;-72
2022/03/23 00:28:43;;;;;;;15.33;11.27;;;;;;;;;;5078941;28;20916;-73
2022/03/23 00:31:11;;;;;;;19.77;12.57;;;;;;;;;;5078729;28;20484;-72
2022/03/23 00:33:39;;;;;;;15.83;10.87;;;;;;;;;;5079290;28;20464;-72
2022/03/23 00:36:09;;;;;;;19.07;11.53;;;;;;;;;;5078909;28;20461;-72
2022/03/23 00:38:37;;;;;;;19.40;11.03;;;;;;;;;;5078241;28;20456;-72
2022/03/23 00:41:05;;;;;;;16.90;10.63;;;;;;;;;;5078183;28;20445;-72
2022/03/23 00:43:34;;;;;;;14.10;10.80;;;;;;;;;;5078675;28;20479;-72
2022/03/23 00:46:02;;;;;;;22.93;12.57;;;;;;;;;;5078567;28;20712;-72
2022/03/23 00:48:30;;;;;;;20.13;11.97;;;;;;;;;;5078310;28;20507;-73
2022/03/23 00:50:58;;;;;;;16.97;10.80;;;;;;;;;;5078875;28;20810;-72
2022/03/23 00:53:25;;;;;;;16.60;9.93;;;;;;;;;;5078387;28;20800;-72
2022/03/23 00:55:53;;;;;;;19.60;12.70;;;;;;;;;;5077399;28;20455;-72
2022/03/23 00:58:21;;;;;;;19.40;11.17;;;;;;;;;;5077883;28;20579;-72
2022/03/23 01:00:51;;;;;;;25.03;11.97;;;;;;;;;;5066280;28;20461;-73
2022/03/23 01:03:19;;;;;;;28.70;12.83;;;;;;;;;;5065468;28;20475;-72
2022/03/23 01:05:47;;;;;;;19.67;11.63;;;;;;;;;;5078434;28;20448;-72
2022/03/23 01:08:15;;;;;;;22.37;11.83;;;;;;;;;;5078017;28;20452;-72
2022/03/23 01:10:43;;;;;;;22.00;12.63;;;;;;;;;;5077685;28;20475;-72
2022/03/23 01:13:14;;;;;;;21.57;11.53;;;;;;;;;;5075802;28;20559;-73
2022/03/23 01:15:42;;;;;;;17.23;10.20;;;;;;;;;;5077549;28;20468;-72
2022/03/23 01:18:12;;;;;;;18.00;10.90;;;;;;;;;;5077814;28;20489;-72
2022/03/23 01:20:40;;;;;;;21.80;12.87;;;;;;;;;;5077651;28;20559;-72
2022/03/23 01:23:08;;;;;;;23.23;12.47;;;;;;;;;;5078033;28;20534;-72
2022/03/23 01:25:36;;;;;;;22.70;12.00;;;;;;;;;;5078085;28;20500;-72
2022/03/23 01:28:05;;;;;;;16.80;11.27;;;;;;;;;;5077686;28;20453;-72
2022/03/23 01:30:33;;;;;;;16.70;10.53;;;;;;;;;;5077700;28;20868;-72
2022/03/23 01:33:00;;;;;;;19.60;10.40;;;;;;;;;;5077702;28;20539;-72
2022/03/23 01:35:30;;;;;;;20.90;13.00;;;;;;;;;;5077812;28;20460;-72
2022/03/23 01:37:58;;;;;;;18.80;11.87;;;;;;;;;;5077059;28;20488;-72
2022/03/23 01:40:26;;;;;;;22.23;10.70;;;;;;;;;;5076869;28;20548;-72
2022/03/23 01:42:55;;;;;;;12.43;8.83;;;;;;;;;;5077911;28;20563;-72
2022/03/23 01:45:23;;;;;;;21.80;12.63;;;;;;;;;;5077367;28;20486;-72
2022/03/23 01:47:51;;;;;;;17.13;10.33;;;;;;;;;;5076563;28;20441;-72
2022/03/23 01:50:18;;;;;;;19.47;12.07;;;;;;;;;;5077173;28;20537;-72
2022/03/23 01:52:52;;;;;;;20.40;11.83;;;;;;;;;;5077333;28;20505;-72
2022/03/23 01:55:21;;;;;;;18.17;11.00;;;;;;;;;;5077390;28;20742;-72
2022/03/23 01:57:54;;;;;;;19.93;11.63;;;;;;;;;;5077257;28;20488;-72
2022/03/23 02:00:22;;;;;;;16.57;10.67;;;;;;;;;;5077162;28;20452;-72
2022/03/23 02:02:53;;;;;;;18.50;11.47;;;;;;;;;;5077012;28;20459;-72
2022/03/23 02:05:21;;;;;;;19.33;10.30;;;;;;;;;;5076437;28;20514;-72
2022/03/23 02:07:52;;;;;;;19.30;11.40;;;;;;;;;;5075188;28;20472;-72
2022/03/23 02:10:21;;;;;;;16.47;10.50;;;;;;;;;;5076461;28;20456;-73
2022/03/23 02:12:51;;;;;;;21.23;10.77;;;;;;;;;;5076614;28;20453;-72
2022/03/23 02:15:20;;;;;;;19.90;11.23;;;;;;;;;;5076962;28;20459;-72
2022/03/23 02:17:53;;;;;;;15.20;10.77;;;;;;;;;;5076673;28;20527;-72
2022/03/23 02:20:21;;;;;;;17.87;10.90;;;;;;;;;;5077172;28;20520;-72
2022/03/23 02:22:51;;;;;;;12.70;9.43;;;;;;;;;;5076623;28;20551;-73
2022/03/23 02:25:22;;;;;;;15.40;11.40;;;;;;;;;;5076789;28;20854;-73
2022/03/23 02:27:52;;;;;;;21.00;11.83;;;;;;;;;;5076842;28;20548;-73
2022/03/23 02:30:19;;;;;;;19.77;11.00;;;;;;;;;;5076313;28;20855;-73
2022/03/23 02:32:48;;;;;;;17.10;10.63;;;;;;;;;;5076829;28;20479;-73
2022/03/23 02:35:16;;;;;;;17.17;11.13;;;;;;;;;;5076616;28;20448;-73
2022/03/23 02:37:44;;;;;;;16.17;11.03;;;;;;;;;;5063272;28;20503;-73
2022/03/23 02:40:14;;;;;;;13.43;10.33;;;;;;;;;;5055886;28;20556;-73
2022/03/23 02:42:42;;;;;;;19.33;12.33;;;;;;;;;;5056764;28;20527;-73
2022/03/23 02:45:11;;;;;;;14.83;8.63;;;;;;;;;;5056013;28;20453;-73
2022/03/23 02:47:41;;;;;;;18.43;11.20;;;;;;;;;;5056615;28;20464;-73
2022/03/23 02:50:10;;;;;;;16.37;11.47;;;;;;;;;;5056313;28;20453;-73
2022/03/23 03:01:52;;;;;;;16.60;10.10;;;;;;;;;;5056205;28;20457;-73
2022/03/23 03:03:54;;;;;;;17.40;10.67;;;;;;;;;;5075785;28;20934;-73
2022/03/23 03:06:21;;;;;;;17.60;10.00;;;;;;;;;;5076362;28;20836;-73
2022/03/23 03:12:03;;;;;;;17.20;9.93;;;;;;;;;;5068878;28;20452;-73
2022/03/23 03:14:39;;;;;;;20.70;11.53;;;;;;;;;;5076032;28;20451;-73
2022/03/23 03:17:11;;;;;;;19.80;13.03;;;;;;;;;;5074224;28;20463;-72
2022/03/23 03:19:42;;;;;;;18.70;11.07;;;;;;;;;;5075611;28;20461;-73
2022/03/23 03:22:10;;;;;;;18.13;10.53;;;;;;;;;;5075586;28;20491;-73
2022/03/23 03:24:47;;;;;;;15.40;9.70;;;;;;;;;;5076089;28;20523;-73
2022/03/23 03:27:17;;;;;;;19.47;11.23;;;;;;;;;;5075923;28;20464;-73
2022/03/23 03:29:44;;;;;;;17.57;10.50;;;;;;;;;;5076094;28;20453;-73
2022/03/23 03:32:12;;;;;;;20.30;11.77;;;;;;;;;;5076027;28;20491;-73
2022/03/23 03:34:40;;;;;;;20.23;11.40;;;;;;;;;;5067288;28;20534;-73
2022/03/23 03:37:08;;;;;;;19.53;11.40;;;;;;;;;;5056266;28;20873;-73
2022/03/23 03:39:36;;;;;;;19.70;11.07;;;;;;;;;;5055836;28;20429;-73
2022/03/23 03:42:04;;;;;;;21.23;11.87;;;;;;;;;;5061929;28;20560;-73
2022/03/23 03:44:34;;;;;;;16.57;11.37;;;;;;;;;;5076235;28;20445;-73
2022/03/23 03:47:02;;;;;;;24.13;11.63;;;;;;;;;;5076222;28;20467;-73
2022/03/23 03:49:30;;;;;;;16.70;10.63;;;;;;;;;;5067828;28;20459;-72
2022/03/23 03:52:01;;;;;;;17.30;11.40;;;;;;;;;;5055791;28;20803;-73
2022/03/23 03:54:28;;;;;;;25.73;13.70;;;;;;;;;;5055691;28;20456;-73
2022/03/23 03:56:56;;;;;;;17.63;11.57;;;;;;;;;;5068532;28;20521;-72
2022/03/23 03:59:34;;;;;;;17.90;11.20;;;;;;;;;;5079126;28;20580;-72
2022/03/23 04:02:03;;;;;;;21.97;12.23;;;;;;;;;;5079325;28;20448;-73
2022/03/23 04:04:31;;;;;;;18.13;11.17;;;;;;;;;;5067244;28;20476;-73
2022/03/23 04:07:04;;;;;;;19.80;11.13;;;;;;;;;;5064961;28;20461;-71
2022/03/23 04:09:32;;;;;;;21.03;12.20;;;;;;;;;;5058307;28;20457;-72
2022/03/23 04:12:00;;;;;;;18.93;11.87;;;;;;;;;;5062469;28;20465;-73
2022/03/23 04:14:31;;;;;;;19.70;12.07;;;;;;;;;;5079297;28;20904;-74
2022/03/23 04:16:59;;;;;;;18.90;12.90;;;;;;;;;;5076991;28;20468;-73
2022/03/23 04:19:31;;;;;;;19.60;11.70;;;;;;;;;;5075247;28;20815;-73
2022/03/23 04:22:06;;;;;;;20.00;12.43;;;;;;;;;;5074509;28;20493;-73
2022/03/23 04:24:34;;;;;;;22.10;10.60;;;;;;;;;;5077768;28;20525;-73
2022/03/23 04:27:02;;;;;;;18.07;12.07;;;;;;;;;;5079190;28;20543;-73
2022/03/23 04:29:34;;;;;;;20.90;11.50;;;;;;;;;;5079488;28;20487;-73
2022/03/23 04:32:02;;;;;;;20.17;12.67;;;;;;;;;;5078924;28;20517;-73
2022/03/23 04:34:32;;;;;;;19.37;12.40;;;;;;;;;;5079504;28;20461;-73
2022/03/23 04:37:02;;;;;;;21.10;12.30;;;;;;;;;;5079079;28;20436;-73
2022/03/23 04:39:35;;;;;;;17.67;10.00;;;;;;;;;;5076858;28;20545;-73
2022/03/23 04:42:03;;;;;;;21.70;12.80;;;;;;;;;;5077140;28;20445;-73
2022/03/23 04:44:33;;;;;;;20.23;12.00;;;;;;;;;;5068113;28;20462;-73
2022/03/23 04:47:11;;;;;;;23.40;12.07;;;;;;;;;;5057918;28;20465;-73
2022/03/23 04:49:40;;;;;;;20.73;12.83;;;;;;;;;;5074325;28;20456;-73
2022/03/23 04:52:08;;;;;;;22.20;13.10;;;;;;;;;;5078070;28;20460;-73
2022/03/23 04:54:41;;;;;;;17.93;11.10;;;;;;;;;;5078454;28;20538;-73
2022/03/23 04:57:16;;;;;;;20.23;12.07;;;;;;;;;;5078754;28;20452;-73
2022/03/23 04:59:44;;;;;;;19.00;10.60;;;;;;;;;;5078276;28;20595;-73
2022/03/23 05:02:12;;;;;;;16.73;10.90;;;;;;;;;;5058737;28;20453;-73
2022/03/23 05:04:43;;;;;;;19.00;12.37;;;;;;;;;;5058287;28;20469;-74
2022/03/23 05:07:17;;;;;;;21.60;12.10;;;;;;;;;;5058055;28;20855;-73
2022/03/23 05:09:45;;;;;;;18.93;10.40;;;;;;;;;;5056523;28;20457;-73
2022/03/23 05:12:13;;;;;;;18.40;12.43;;;;;;;;;;5057987;28;20457;-72
2022/03/23 05:14:46;;;;;;;20.17;11.27;;;;;;;;;;5058243;28;20453;-73
2022/03/23 05:17:15;;;;;;;24.47;13.70;;;;;;;;;;5067163;28;21067;-73
2022/03/23 05:19:46;;;;;;;18.90;13.23;;;;;;;;;;5058206;28;20892;-73
2022/03/23 05:22:15;;;;;;;18.63;11.90;;;;;;;;;;5057702;28;20527;-73
2022/03/23 05:24:43;;;;;;;16.07;12.30;;;;;;;;;;5057818;28;20504;-73
2022/03/23 05:27:14;;;;;;;18.67;11.57;;;;;;;;;;5058176;28;20454;-73
2022/03/23 05:29:43;;;;;;;20.73;11.50;;;;;;;;;;5057597;28;20457;-73
2022/03/23 05:32:16;;;;;;;20.80;12.17;;;;;;;;;;5057802;28;20731;-73
2022/03/23 05:34:45;;;;;;;17.50;11.63;;;;;;;;;;5057637;28;20449;-73
2022/03/23 05:37:14;;;;;;;17.50;11.67;;;;;;;;;;5064058;28;20790;-73
2022/03/23 05:39:44;;;;;;;17.67;10.67;;;;;;;;;;5076611;28;20485;-71
2022/03/23 05:42:12;;;;;;;20.53;11.10;;;;;;;;;;5077064;28;20449;-73
2022/03/23 05:44:42;;;;;;;17.67;12.43;;;;;;;;;;5076105;28;20456;-71
2022/03/23 05:47:14;;;;;;;17.27;11.53;;;;;;;;;;5076488;28;20488;-73
2022/03/23 05:49:47;;;;;;;18.97;12.70;;;;;;;;;;5076599;28;20460;-73
2022/03/23 05:52:21;;;;;;;16.93;11.10;;;;;;;;;;5071964;28;20933;-74
2022/03/23 05:54:50;;;;;;;21.10;11.87;;;;;;;;;;5076784;28;20494;-73
2022/03/23 05:57:18;;;;;;;24.40;13.60;;;;;;;;;;5076950;28;20452;-73
2022/03/23 05:59:47;;;;;;;19.90;11.70;;;;;;;;;;5076199;28;20519;-73
2022/03/23 06:02:16;;;;;;;20.00;12.90;;;;;;;;;;5075645;28;20453;-73
2022/03/23 06:04:44;;;;;;;34.47;13.97;;;;;;;;;;5074843;28;20541;-73
2022/03/23 06:07:12;;;;;;;21.13;13.10;;;;;;;;;;5072486;28;20449;-73
2022/03/23 06:09:49;;;;;;;21.33;12.30;;;;;;;;;;5076090;28;20464;-72
2022/03/23 06:12:17;;;;;;;15.87;12.77;;;;;;;;;;5074331;28;20468;-71
2022/03/23 06:14:45;;;;;;;21.50;12.50;;;;;;;;;;5075107;28;20478;-71
2022/03/23 06:17:14;;;;;;;27.27;14.13;;;;;;;;;;5072613;28;20456;-71
2022/03/23 06:19:44;;;;;;;25.20;11.80;;;;;;;;;;5072834;28;20792;-71
2022/03/23 06:22:19;;;;;;;24.30;13.30;;;;;;;;;;5061017;28;20462;-73
2022/03/23 06:24:52;;;;;;;18.93;12.10;;;;;;;;;;5061673;28;20890;-73
2022/03/23 06:27:19;;;;;;;21.77;13.07;;;;;;;;;;5054477;28;20854;-73
2022/03/23 06:29:47;;;;;;;22.60;11.87;;;;;;;;;;5054214;28;20649;-72
2022/03/23 06:32:17;;;;;;;30.03;14.50;;;;;;;;;;5061370;28;20911;-72
2022/03/23 06:34:45;;;;;;;22.43;13.27;;;;;;;;;;5072493;28;20448;-71
2022/03/23 06:37:14;;;;;;;22.97;14.57;;;;;;;;;;5074096;28;20451;-71
2022/03/23 06:39:47;;;;;;;20.47;12.60;;;;;;;;;;5054291;28;20485;-73
2022/03/23 06:42:24;;;;;;;22.17;12.80;;;;;;;;;;5064610;28;20494;-73
2022/03/23 06:44:52;;;;;;;21.23;13.50;;;;;;;;;;5075222;28;20471;-72
2022/03/23 06:47:20;;;;;;;17.77;10.93;;;;;;;;;;5077822;28;20432;-73
2022/03/23 06:49:48;;;;;;;27.27;15.57;;;;;;;;;;5082961;28;20873;-72
2022/03/23 06:52:17;;;;;;;24.03;12.87;;;;;;;;;;5060786;28;20457;-72
2022/03/23 06:54:45;;;;;;;21.10;14.33;;;;;;;;;;5059541;28;20471;-71
2022/03/23 06:57:14;;;;;;;21.60;12.00;;;;;;;;;;5054358;28;20469;-71
2022/03/23 06:59:45;;;;;;;19.10;13.73;;;;;;;;;;5052794;28;20489;-71
2022/03/23 07:02:21;;;;;;;21.77;15.03;;;;;;;;;;5054426;28;20454;-71
2022/03/23 07:04:50;;;;;;;25.30;14.20;;;;;;;;;;5066178;28;20464;-73
2022/03/23 07:07:21;;;;;;;23.73;15.20;;;;;;;;;;5069238;28;20441;-73
2022/03/23 07:10:02;;;;;;;23.50;14.70;;;;;;;;;;5052995;28;21134;-73
2022/03/23 07:12:36;;;;;;;19.83;13.20;;;;;;;;;;5073030;28;20468;-73
2022/03/23 07:15:09;;;;;;;22.80;13.80;;;;;;;;;;5072252;28;20444;-72
2022/03/23 07:17:38;;;;;;;21.40;14.07;;;;;;;;;;5073207;28;20521;-74
2022/03/23 07:20:07;;;;;;;19.47;13.17;;;;;;;;;;5072654;28;20480;-73
2022/03/23 07:22:41;;;;;;;21.27;13.30;;;;;;;;;;5073607;28;20452;-71
2022/03/23 07:25:09;;;;;;;28.43;16.47;;;;;;;;;;5057461;28;20787;-72
2022/03/23 07:27:57;;;;;;;19.30;15.00;;;;;;;;;;5053858;28;20456;-72
2022/03/23 07:30:42;;;;;;;22.93;16.23;;;;;;;;;;5052764;28;20437;-72
2022/03/23 07:33:14;;;;;;;23.73;15.33;;;;;;;;;;5061009;28;20556;-71
2022/03/23 07:35:48;;;;;;;18.73;14.50;;;;;;;;;;5065825;28;20456;-71
2022/03/23 07:41:33;;;;;;;25.93;15.70;;;;;;;;;;5055228;28;20468;-73
2022/03/23 07:44:13;;;;;;;22.50;13.63;;;;;;;;;;5061296;28;20460;-72
2022/03/23 07:46:42;;;;;;;28.33;15.27;;;;;;;;;;5056557;28;20468;-72
2022/03/23 07:49:12;;;;;;;27.37;15.67;;;;;;;;;;5056619;28;20536;-72
2022/03/23 07:51:45;;;;;;;23.30;16.07;;;;;;;;;;5064819;28;20809;-72
2022/03/23 07:54:23;;;;;;;22.77;16.00;;;;;;;;;;5077344;28;20424;-73
2022/03/23 07:56:55;;;;;;;23.90;17.30;;;;;;;;;;5077266;28;20447;-71
2022/03/23 07:59:40;;;;;;;22.57;14.70;;;;;;;;;;5071892;28;20571;-71
2022/03/23 08:02:12;;;;;;;25.80;14.83;;;;;;;;;;5078060;28;20896;-72
2022/03/23 08:04:48;;;;;;;23.30;14.90;;;;;;;;;;5077148;28;20468;-72
2022/03/23 08:07:22;;;;;;;25.50;15.53;;;;;;;;;;5076182;28;20744;-71
2022/03/23 08:09:53;;;;;;;19.93;14.47;;;;;;;;;;5077135;28;20438;-72
2022/03/23 08:12:28;;;;;;;25.40;16.33;;;;;;;;;;5073957;28;20459;-72
2022/03/23 08:15:01;;;;;;;22.93;14.07;;;;;;;;;;5071728;28;20467;-72
2022/03/23 08:17:30;;;;;;;21.47;14.07;;;;;;;;;;5071471;28;20471;-72
2022/03/23 08:23:04;;;;;;;23.07;14.97;;;;;;;;;;5021835;28;20454;-72
2022/03/23 08:25:33;;;;;;;21.03;15.00;;;;;;;;;;5018170;28;20525;-72
2022/03/23 08:28:02;;;;;;;22.63;15.27;;;;;;;;;;5003557;28;20713;-71
2022/03/23 08:30:30;;;;;;;23.40;13.87;;;;;;;;;;5013594;28;20462;-71
2022/03/23 08:32:58;;;;;;;23.00;14.93;;;;;;;;;;5010223;28;20491;-72
2022/03/23 08:35:33;;;;;;;21.13;14.53;;;;;;;;;;5058682;28;20449;-70
2022/03/23 08:38:04;;;;;;;23.80;15.60;;;;;;;;;;5076800;28;20484;-71
2022/03/23 08:40:32;;;;;;;46.47;29.43;;;;;;;;;;5069935;28;20474;-71
2022/03/23 08:43:00;;;;;;;30.83;20.87;;;;;;;;;;5054554;28;20552;-72
2022/03/23 08:45:42;;;;;;;24.53;15.37;;;;;;;;;;5056776;28;20476;-72
2022/03/23 08:48:10;;;;;;;28.47;15.13;;;;;;;;;;5069477;28;20463;-72
2022/03/23 08:50:40;;;;;;;18.27;13.60;;;;;;;;;;5076097;28;20440;-72
2022/03/23 08:53:08;;;;;;;23.60;16.10;;;;;;;;;;5062846;28;20469;-72
2022/03/23 08:55:36;;;;;;;20.67;14.03;;;;;;;;;;5055865;28;20461;-71
2022/03/23 08:58:08;;;;;;;19.67;13.73;;;;;;;;;;5056149;28;20808;-72
2022/03/23 09:00:40;;;;;;;26.47;14.43;;;;;;;;;;5055892;28;20505;-71
2022/03/23 09:03:10;;;;;;;18.57;14.33;;;;;;;;;;5070924;28;20528;-72
2022/03/23 09:05:38;;;;;;;19.43;15.10;;;;;;;;;;5054739;28;20445;-72
2022/03/23 09:08:16;;;;;;;21.10;13.90;;;;;;;;;;5070382;28;20510;-71
2022/03/23 09:10:45;;;;;;;28.33;16.10;;;;;;;;;;5065739;28;20444;-73
2022/03/23 09:13:15;;;;;;;23.83;15.13;;;;;;;;;;5069671;28;20457;-72
2022/03/23 09:15:47;;;;;;;19.20;13.90;;;;;;;;;;5046404;28;20451;-72
2022/03/23 09:18:31;;;;;;;21.80;14.60;;;;;;;;;;5036437;28;20529;-72
2022/03/23 09:21:22;;;;;;;17.97;13.20;;;;;;;;;;5051327;28;20588;-74
2022/03/23 09:23:58;;;;;;;18.00;12.43;;;;;;;;;;5054491;28;20442;-72
2022/03/23 09:26:33;;;;;;;19.00;12.50;;;;;;;;;;5054064;28;20548;-72
2022/03/23 09:29:07;;;;;;;17.48;14.18;;;;;;;;;;5052892;28;20447;-73
2022/03/23 09:32:11;;;;;;;16.53;13.07;;;;;;;;;;5055354;28;20213;-73
2022/03/23 09:34:39;;;;;;;17.50;11.97;;;;;;;;;;5032370;28;20863;-74
2022/03/23 09:39:55;;;;;;;19.70;13.10;;;;;;;;;;5050790;28;20481;-73
2022/03/23 09:42:25;;;;;;;17.97;12.77;;;;;;;;;;5055043;28;20462;-72
2022/03/23 09:44:55;;;;;;;16.33;11.90;;;;;;;;;;5054912;28;20472;-73
2022/03/23 09:47:24;;;;;;;18.60;12.90;;;;;;;;;;5054283;28;20450;-73
2022/03/23 09:49:52;;;;;;;17.43;11.73;;;;;;;;;;5051599;28;20839;-73
2022/03/23 09:52:24;;;;;;;16.30;11.40;;;;;;;;;;5035353;28;21029;-73
2022/03/23 09:54:59;;;;;;;17.50;12.00;;;;;;;;;;5034835;28;20450;-73
2022/03/23 09:57:29;;;;;;;15.43;11.30;;;;;;;;;;5047313;28;20474;-74
2022/03/23 09:59:57;;;;;;;14.07;10.47;;;;;;;;;;5054795;28;20477;-73
2022/03/23 10:02:58;;;;;;;19.30;12.83;;;;;;;;;;5042363;28;20561;-73
2022/03/23 10:06:02;;;;;;;15.90;11.77;;;;;;;;;;5054370;28;20441;-73
2022/03/23 10:08:49;;;;;;;14.00;10.53;;;;;;;;;;4990297;28;20575;-73
2022/03/23 10:11:56;;;;;;;14.33;10.40;;;;;;;;;;4988109;28;20459;-74
2022/03/23 10:14:43;;;;;;;14.20;12.40;;;;;;;;;;5056842;28;20480;-72
2022/03/23 10:17:27;;;;;;;13.53;10.10;;;;;;;;;;5069877;28;20440;-73
2022/03/23 10:19:58;;;;;;;12.87;10.50;;;;;;;;;;5066849;28;20489;-73
2022/03/23 10:22:28;;;;;;;16.87;10.40;;;;;;;;;;5060211;28;20457;-73
2022/03/23 10:25:10;;;;;;;12.57;11.23;;;;;;;;;;5071808;28;20560;-72
2022/03/23 10:27:40;;;;;;;15.80;11.33;;;;;;;;;;5063961;28;20462;-72
2022/03/23 10:30:11;;;;;;;18.40;12.23;;;;;;;;;;5062402;28;20496;-72
2022/03/23 10:32:41;;;;;;;17.20;13.00;;;;;;;;;;5071604;28;20502;-72
2022/03/23 10:35:12;;;;;;;14.70;10.83;;;;;;;;;;5072015;28;20490;-72
2022/03/23 10:37:40;;;;;;;16.80;13.30;;;;;;;;;;5072070;28;20461;-72
2022/03/23 10:40:10;;;;;;;14.00;11.03;;;;;;;;;;5069080;28;20575;-72
2022/03/23 10:42:41;;;;;;;14.47;11.53;;;;;;;;;;5064367;28;20449;-72
2022/03/23 10:45:11;;;;;;;17.10;12.20;;;;;;;;;;5072219;28;20461;-72
2022/03/23 10:47:40;;;;;;;16.63;10.97;;;;;;;;;;5082583;28;20896;-72
2022/03/23 10:50:19;;;;;;;17.97;12.03;;;;;;;;;;5071537;28;21496;-73
2022/03/23 10:53:29;;;;;;;14.77;11.50;;;;;;;;;;5061377;28;20450;-73
2022/03/23 10:56:05;;;;;;;17.03;11.30;;;;;;;;;;5061544;28;20456;-73
2022/03/23 10:58:35;;;;;;;18.50;13.67;;;;;;;;;;5064838;28;20448;-73
2022/03/23 11:01:07;;;;;;;17.03;11.90;;;;;;;;;;5072161;28;20484;-72
2022/03/23 11:03:37;;;;;;;16.20;11.40;;;;;;;;;;5073790;28;20464;-72
2022/03/23 11:06:10;;;;;;;14.23;11.00;;;;;;;;;;5072644;28;20457;-72
2022/03/23 11:08:44;;;;;;;13.40;10.20;;;;;;;;;;5068034;28;20445;-72
2022/03/23 11:16:51;;;;;;;21.70;11.37;;;;;;;;;;5063936;28;20217;-72
2022/03/23 11:19:23;;;;;;;15.90;12.03;;;;;;;;;;5067663;28;20548;-72
2022/03/23 11:22:09;;;;;;;17.57;11.37;;;;;;;;;;5070182;28;20552;-72
2022/03/23 11:24:40;;;;;;;18.47;12.57;;;;;;;;;;5072416;28;20837;-73
2022/03/23 11:27:18;;;;;;;21.00;12.50;;;;;;;;;;5067117;28;20525;-73
2022/03/23 11:29:55;;;;;;;15.83;11.53;;;;;;;;;;5063530;28;20460;-73
2022/03/23 11:32:27;;;;;;;22.10;14.97;;;;;;;;;;5073580;28;20453;-73
2022/03/23 11:34:59;;;;;;;20.43;12.07;;;;;;;;;;5072436;28;20548;-74
2022/03/23 11:37:30;;;;;;;23.00;13.27;;;;;;;;;;5058081;28;20527;-73
2022/03/23 11:40:03;;;;;;;20.63;12.27;;;;;;;;;;5052706;28;20492;-74
2022/03/23 11:42:35;;;;;;;21.57;14.03;;;;;;;;;;5054120;28;20471;-73
2022/03/23 11:45:09;;;;;;;22.97;12.97;;;;;;;;;;5065826;28;20511;-71
2022/03/23 11:47:50;;;;;;;22.40;15.17;;;;;;;;;;5064361;28;20519;-73
2022/03/23 11:50:22;;;;;;;22.60;14.57;;;;;;;;;;5057217;28;20866;-73
2022/03/23 11:52:56;;;;;;;22.73;14.87;;;;;;;;;;5070012;28;20460;-73
2022/03/23 11:55:54;;;;;;;23.97;14.03;;;;;;;;;;5069774;28;20467;-73
2022/03/23 11:58:37;;;;;;;20.90;12.30;;;;;;;;;;5071563;28;20464;-74
2022/03/23 12:01:17;;;;;;;19.10;13.07;;;;;;;;;;5075038;28;20484;-73
2022/03/23 12:03:51;;;;;;;22.37;12.77;;;;;;;;;;5071748;28;20721;-73
2022/03/23 12:06:36;;;;;;;20.13;13.60;;;;;;;;;;5071068;28;20543;-74
2022/03/23 12:09:30;;;;;;;19.53;14.27;;;;;;;;;;5073186;28;20444;-73
2022/03/23 12:12:01;;;;;;;24.30;13.80;;;;;;;;;;5061972;28;20514;-73
2022/03/23 12:14:32;;;;;;;30.80;15.57;;;;;;;;;;5065698;28;20531;-74
2022/03/23 12:17:14;;;;;;;18.97;12.27;;;;;;;;;;5060014;28;20452;-74
2022/03/23 12:20:11;;;;;;;24.70;14.60;;;;;;;;;;5065411;28;20543;-74
2022/03/23 12:22:54;;;;;;;21.57;14.13;;;;;;;;;;5074476;28;20445;-73
2022/03/23 12:25:37;;;;;;;21.50;15.10;;;;;;;;;;5074233;28;20486;-73
2022/03/23 12:28:25;;;;;;;28.67;14.60;;;;;;;;;;5075289;28;20474;-73
2022/03/23 12:31:13;;;;;;;25.60;17.40;;;;;;;;;;5075064;28;20456;-73
2022/03/23 12:34:21;;;;;;;19.90;15.90;;;;;;;;;;5055659;28;20484;-73
2022/03/23 12:37:01;;;;;;;22.07;13.60;;;;;;;;;;5068354;28;20530;-72
2022/03/23 12:39:44;;;;;;;30.10;15.80;;;;;;;;;;5063287;28;20445;-73
2022/03/23 12:42:31;;;;;;;20.40;14.57;;;;;;;;;;5075801;28;20463;-72
2022/03/23 12:45:19;;;;;;;24.43;15.10;;;;;;;;;;5071903;28;20552;-72
2022/03/23 12:59:26;;;;;;;19.30;12.40;;;;;;;;;;5074469;28;20474;-73
2022/03/23 13:01:58;;;;;;;21.80;13.33;;;;;;;;;;5076530;28;20730;-71
2022/03/23 13:04:50;;;;;;;20.47;11.00;;;;;;;;;;5071061;28;20496;-71
2022/03/23 13:07:45;;;;;;;21.17;11.67;;;;;;;;;;5065436;28;20698;-71
2022/03/23 13:10:31;;;;;;;18.00;11.03;;;;;;;;;;4996544;28;20530;-72
2022/03/23 13:13:14;;;;;;;18.73;12.80;;;;;;;;;;5006777;28;20453;-73
2022/03/23 13:15:45;;;;;;;21.93;14.73;;;;;;;;;;5075525;28;21089;-72
2022/03/23 13:18:14;;;;;;;25.40;14.10;;;;;;;;;;5062996;28;20908;-72
2022/03/23 13:20:52;;;;;;;23.47;15.00;;;;;;;;;;5067614;28;20484;-72
2022/03/23 13:23:28;;;;;;;21.57;13.40;;;;;;;;;;5074977;28;21043;-72
2022/03/23 13:26:04;;;;;;;21.50;14.03;;;;;;;;;;5064352;28;20461;-73
2022/03/23 13:28:38;;;;;;;29.83;16.47;;;;;;;;;;5060898;28;20455;-73
2022/03/23 13:31:12;;;;;;;21.47;14.23;;;;;;;;;;5066060;28;20518;-73
2022/03/23 13:33:45;;;;;;;21.07;13.67;;;;;;;;;;5073618;28;20873;-72
2022/03/23 13:36:15;;;;;;;20.50;13.40;;;;;;;;;;5074448;28;21201;-73
2022/03/23 13:38:44;;;;;;;22.60;13.77;;;;;;;;;;5072715;28;21094;-73
2022/03/23 13:44:14;;;;;;;19.57;12.07;;;;;;;;;;5067905;28;20444;-74
2022/03/23 13:46:44;;;;;;;22.83;12.37;;;;;;;;;;5062766;28;20486;-73
2022/03/23 13:49:17;;;;;;;20.60;13.80;;;;;;;;;;5071203;28;20919;-73
2022/03/23 13:51:54;;;;;;;17.93;12.57;;;;;;;;;;5074205;28;20610;-72
2022/03/23 13:54:30;;;;;;;23.80;14.77;;;;;;;;;;5076083;28;20555;-72
2022/03/23 13:56:59;;;;;;;18.97;11.40;;;;;;;;;;5071682;28;20450;-72
2022/03/23 13:59:35;;;;;;;23.73;12.97;;;;;;;;;;5056159;28;20462;-72
2022/03/23 14:02:04;;;;;;;17.57;11.50;;;;;;;;;;5068256;28;20481;-72
2022/03/23 14:04:42;;;;;;;25.00;12.70;;;;;;;;;;5054570;28;20472;-74
2022/03/23 14:07:17;;;;;;;19.10;12.30;;;;;;;;;;5054752;28;20457;-72
2022/03/23 14:09:50;;;;;;;21.03;14.13;;;;;;;;;;5059450;28;20480;-72
2022/03/23 14:12:21;;;;;;;22.23;13.23;;;;;;;;;;5072877;28;20441;-72
2022/03/23 14:14:50;;;;;;;21.10;11.87;;;;;;;;;;5071671;28;20449;-72
2022/03/23 14:17:25;;;;;;;17.80;11.20;;;;;;;;;;5069581;28;20476;-72
2022/03/23 14:20:04;;;;;;;16.10;10.53;;;;;;;;;;5064225;28;20524;-72
2022/03/23 14:22:43;;;;;;;20.13;10.60;;;;;;;;;;5071582;28;20484;-73
2022/03/23 14:25:20;;;;;;;21.63;12.87;;;;;;;;;;5069011;28;20453;-73
2022/03/23 14:27:54;;;;;;;27.13;15.53;;;;;;;;;;5071949;28;20539;-73
2022/03/23 14:30:27;;;;;;;22.53;14.10;;;;;;;;;;5065036;28;20459;-73
2022/03/23 14:32:56;;;;;;;26.00;13.17;;;;;;;;;;5094781;28;20561;-74
2022/03/23 14:35:26;;;;;;;17.43;11.00;;;;;;;;;;5094665;28;20555;-73
2022/03/23 14:37:55;;;;;;;17.80;11.07;;;;;;;;;;5071491;28;20452;-72
2022/03/23 14:40:28;;;;;;;47.60;29.27;;;;;;;;;;5072624;28;20464;-73
2022/03/23 14:45:48;;;;;;;20.60;11.17;;;;;;;;;;5068742;28;20456;-73
2022/03/23 14:48:18;;;;;;;22.50;11.30;;;;;;;;;;5073723;28;20441;-73
2022/03/23 14:50:49;;;;;;;17.13;10.57;;;;;;;;;;5073069;28;20453;-73
2022/03/23 14:53:25;;;;;;;18.90;11.60;;;;;;;;;;5068671;28;20867;-72
2022/03/23 14:56:01;;;;;;;20.87;11.80;;;;;;;;;;5073070;28;20506;-72
2022/03/23 14:58:32;;;;;;;16.50;11.70;;;;;;;;;;5072562;28;20467;-71
2022/03/23 15:01:02;;;;;;;22.17;12.03;;;;;;;;;;5062170;28;20876;-72
2022/03/23 15:03:34;;;;;;;19.80;11.30;;;;;;;;;;5052708;28;20885;-72
2022/03/23 15:14:30;;;;;;;26.53;14.17;;;;;;;;;;5053449;28;20884;-71
2022/03/23 15:17:04;;;;;;;20.23;15.43;;;;;;;;;;5055338;28;20457;-72
2022/03/23 15:19:38;;;;;;;24.60;14.90;;;;;;;;;;5070837;28;20453;-71
2022/03/23 15:22:23;;;;;;;22.00;13.83;;;;;;;;;;5072872;28;20487;-72
2022/03/23 15:25:06;;;;;;;21.67;13.40;;;;;;;;;;5071389;28;20441;-72
2022/03/23 15:27:43;;;;;;;27.10;13.93;;;;;;;;;;5064705;28;20445;-72
2022/03/23 15:30:32;;;;;;;;;;;;;;;;;;;;;
2022/03/23 15:33:02;;;;;;;23.43;15.40;;;;;;;;;;5062153;28;20443;-72
2022/03/23 15:35:32;;;;;;;20.73;13.77;;;;;;;;;;5072169;28;20555;-72
2022/03/23 15:38:06;;;;;;;21.47;13.80;;;;;;;;;;5052829;28;20487;-72
2022/03/23 15:40:40;;;;;;;34.13;14.90;;;;;;;;;;5057106;28;20468;-73
2022/03/23 15:43:11;;;;;;;18.10;11.73;;;;;;;;;;5064726;28;20853;-73